Terminal Aerodrome Forecast
Issued by NWS

Home | Current Version | Previous Version | Text Only | Print | Product List | Glossary On
Versions: 1 2 3 4 5 6 7 8 9 10 11 12 13 14 15 16 17 18 19 20 21 22 23 24 25 26 27 28
000
FTUS41 KOKX 250535
TAFTEB
TAF
KTEB 250535Z 2506/2606 VRB04KT P6SM BKN130
     FM251300 21008KT P6SM BKN130
     FM251500 21010G17KT P6SM SCT130 BKN200
     FM251800 21017G26KT P6SM FEW050 BKN200
     FM260100 21012G20KT P6SM BKN250
     FM260400 22008KT P6SM BKN250=

USA.gov is the U.S. government's official web portal to all federal, state and local government web resources and services.